sensor_id;sensor_type;location;lat;lon;timestamp;P1;durP1;ratioP1;P2;durP2;ratioP2
20751;SDS011;10536;51.582;5.016;2022-10-31T00:04:29;27.90;;;14.07;;
20751;SDS011;10536;51.582;5.016;2022-10-31T00:09:30;27.95;;;15.27;;
20751;SDS011;10536;51.582;5.016;2022-10-31T00:14:30;29.97;;;14.97;;
20751;SDS011;10536;51.582;5.016;2022-10-31T00:19:30;29.23;;;15.27;;
20751;SDS011;10536;51.582;5.016;2022-10-31T00:24:31;24.70;;;15.60;;
20751;SDS011;10536;51.582;5.016;2022-10-31T00:29:31;33.38;;;15.73;;
20751;SDS011;10536;51.582;5.016;2022-10-31T00:34:32;28.35;;;17.20;;
20751;SDS011;10536;51.582;5.016;2022-10-31T00:39:32;28.13;;;15.73;;
20751;SDS011;10536;51.582;5.016;2022-10-31T00:44:33;27.98;;;14.77;;
20751;SDS011;10536;51.582;5.016;2022-10-31T00:49:33;21.83;;;14.73;;
20751;SDS011;10536;51.582;5.016;2022-10-31T00:54:33;30.93;;;15.93;;
20751;SDS011;10536;51.582;5.016;2022-10-31T00:59:34;22.15;;;15.00;;
20751;SDS011;10536;51.582;5.016;2022-10-31T01:04:35;23.65;;;14.98;;
20751;SDS011;10536;51.582;5.016;2022-10-31T01:09:35;26.52;;;14.38;;
20751;SDS011;10536;51.582;5.016;2022-10-31T01:14:36;27.67;;;15.68;;
20751;SDS011;10536;51.582;5.016;2022-10-31T01:19:36;30.02;;;15.77;;
20751;SDS011;10536;51.582;5.016;2022-10-31T01:24:37;32.70;;;16.23;;
20751;SDS011;10536;51.582;5.016;2022-10-31T01:29:37;33.25;;;16.10;;
20751;SDS011;10536;51.582;5.016;2022-10-31T01:34:38;25.60;;;15.53;;
20751;SDS011;10536;51.582;5.016;2022-10-31T01:39:39;25.25;;;14.63;;
20751;SDS011;10536;51.582;5.016;2022-10-31T01:54:43;24.88;;;15.05;;
20751;SDS011;10536;51.582;5.016;2022-10-31T01:59:47;24.65;;;14.63;;
20751;SDS011;10536;51.582;5.016;2022-10-31T02:04:51;24.42;;;14.20;;
20751;SDS011;10536;51.582;5.016;2022-10-31T02:09:53;25.10;;;14.77;;
20751;SDS011;10536;51.582;5.016;2022-10-31T02:14:58;26.33;;;14.88;;
20751;SDS011;10536;51.582;5.016;2022-10-31T02:30:40;24.63;;;14.15;;
20751;SDS011;10536;51.582;5.016;2022-10-31T02:36:04;26.02;;;14.93;;
20751;SDS011;10536;51.582;5.016;2022-10-31T02:41:27;21.50;;;14.27;;
20751;SDS011;10536;51.582;5.016;2022-10-31T02:46:39;31.25;;;14.20;;
20751;SDS011;10536;51.582;5.016;2022-10-31T02:51:43;25.90;;;15.25;;
20751;SDS011;10536;51.582;5.016;2022-10-31T02:56:43;23.33;;;14.68;;
20751;SDS011;10536;51.582;5.016;2022-10-31T03:02:00;30.02;;;15.85;;
20751;SDS011;10536;51.582;5.016;2022-10-31T03:12:42;24.55;;;14.48;;
20751;SDS011;10536;51.582;5.016;2022-10-31T03:23:13;23.15;;;15.05;;
20751;SDS011;10536;51.582;5.016;2022-10-31T03:28:18;24.27;;;15.25;;
20751;SDS011;10536;51.582;5.016;2022-10-31T03:33:26;22.23;;;15.02;;
20751;SDS011;10536;51.582;5.016;2022-10-31T03:38:30;25.20;;;14.93;;
20751;SDS011;10536;51.582;5.016;2022-10-31T03:43:41;27.58;;;16.42;;
20751;SDS011;10536;51.582;5.016;2022-10-31T03:48:46;28.02;;;15.50;;
20751;SDS011;10536;51.582;5.016;2022-10-31T03:53:52;24.90;;;13.63;;
20751;SDS011;10536;51.582;5.016;2022-10-31T04:03:57;32.05;;;16.80;;
20751;SDS011;10536;51.582;5.016;2022-10-31T04:08:59;33.22;;;16.23;;
20751;SDS011;10536;51.582;5.016;2022-10-31T04:14:02;26.20;;;15.25;;
20751;SDS011;10536;51.582;5.016;2022-10-31T04:19:16;27.13;;;15.82;;
20751;SDS011;10536;51.582;5.016;2022-10-31T04:24:26;27.92;;;17.38;;
20751;SDS011;10536;51.582;5.016;2022-10-31T04:29:37;20.88;;;14.80;;
20751;SDS011;10536;51.582;5.016;2022-10-31T04:34:51;27.17;;;16.05;;
20751;SDS011;10536;51.582;5.016;2022-10-31T04:39:59;23.85;;;15.60;;
20751;SDS011;10536;51.582;5.016;2022-10-31T04:45:10;34.17;;;18.17;;
20751;SDS011;10536;51.582;5.016;2022-10-31T04:50:23;28.33;;;16.77;;
20751;SDS011;10536;51.582;5.016;2022-10-31T04:55:35;27.08;;;17.08;;
20751;SDS011;10536;51.582;5.016;2022-10-31T05:00:46;29.15;;;19.25;;
20751;SDS011;10536;51.582;5.016;2022-10-31T05:06:02;32.53;;;17.55;;
20751;SDS011;10536;51.582;5.016;2022-10-31T05:11:13;32.80;;;17.20;;
20751;SDS011;10536;51.582;5.016;2022-10-31T05:16:24;25.35;;;15.95;;
20751;SDS011;10536;51.582;5.016;2022-10-31T05:21:37;36.70;;;20.60;;
20751;SDS011;10536;51.582;5.016;2022-10-31T05:26:52;46.28;;;24.55;;
20751;SDS011;10536;51.582;5.016;2022-10-31T05:32:00;37.10;;;19.92;;
20751;SDS011;10536;51.582;5.016;2022-10-31T05:37:08;66.90;;;38.92;;
20751;SDS011;10536;51.582;5.016;2022-10-31T05:42:20;85.38;;;55.47;;
20751;SDS011;10536;51.582;5.016;2022-10-31T05:47:31;127.53;;;83.38;;
20751;SDS011;10536;51.582;5.016;2022-10-31T05:52:43;47.35;;;29.58;;
20751;SDS011;10536;51.582;5.016;2022-10-31T05:57:55;59.83;;;32.45;;
20751;SDS011;10536;51.582;5.016;2022-10-31T06:03:07;56.90;;;28.30;;
20751;SDS011;10536;51.582;5.016;2022-10-31T06:08:18;59.47;;;33.13;;
20751;SDS011;10536;51.582;5.016;2022-10-31T06:13:28;43.75;;;26.15;;
20751;SDS011;10536;51.582;5.016;2022-10-31T06:18:40;44.35;;;25.80;;
20751;SDS011;10536;51.582;5.016;2022-10-31T06:23:49;58.00;;;28.65;;
20751;SDS011;10536;51.582;5.016;2022-10-31T06:28:57;61.10;;;27.88;;
20751;SDS011;10536;51.582;5.016;2022-10-31T06:34:12;60.30;;;31.23;;
20751;SDS011;10536;51.582;5.016;2022-10-31T06:39:27;62.83;;;31.13;;
20751;SDS011;10536;51.582;5.016;2022-10-31T06:44:37;67.88;;;33.22;;
20751;SDS011;10536;51.582;5.016;2022-10-31T06:49:48;64.88;;;32.70;;
20751;SDS011;10536;51.582;5.016;2022-10-31T06:55:03;62.33;;;33.67;;
20751;SDS011;10536;51.582;5.016;2022-10-31T07:00:18;60.55;;;29.98;;
20751;SDS011;10536;51.582;5.016;2022-10-31T07:05:29;60.28;;;29.58;;
20751;SDS011;10536;51.582;5.016;2022-10-31T07:10:42;59.00;;;28.50;;
20751;SDS011;10536;51.582;5.016;2022-10-31T07:16:00;47.83;;;27.27;;
20751;SDS011;10536;51.582;5.016;2022-10-31T07:21:10;66.68;;;32.60;;
20751;SDS011;10536;51.582;5.016;2022-10-31T07:26:25;61.72;;;31.67;;
20751;SDS011;10536;51.582;5.016;2022-10-31T07:31:39;59.40;;;31.80;;
20751;SDS011;10536;51.582;5.016;2022-10-31T07:36:53;54.72;;;30.35;;
20751;SDS011;10536;51.582;5.016;2022-10-31T07:42:12;71.97;;;33.10;;
20751;SDS011;10536;51.582;5.016;2022-10-31T07:47:23;63.65;;;30.55;;
20751;SDS011;10536;51.582;5.016;2022-10-31T07:52:39;66.85;;;33.45;;
20751;SDS011;10536;51.582;5.016;2022-10-31T07:57:56;66.07;;;34.42;;
20751;SDS011;10536;51.582;5.016;2022-10-31T08:03:10;70.70;;;36.00;;
20751;SDS011;10536;51.582;5.016;2022-10-31T08:08:18;74.95;;;34.97;;
20751;SDS011;10536;51.582;5.016;2022-10-31T08:13:28;61.85;;;31.10;;
20751;SDS011;10536;51.582;5.016;2022-10-31T08:18:35;57.33;;;29.25;;
20751;SDS011;10536;51.582;5.016;2022-10-31T08:23:48;57.08;;;28.67;;
20751;SDS011;10536;51.582;5.016;2022-10-31T08:29:00;45.88;;;27.27;;
20751;SDS011;10536;51.582;5.016;2022-10-31T08:34:13;41.88;;;24.85;;
20751;SDS011;10536;51.582;5.016;2022-10-31T08:39:24;40.38;;;22.33;;
20751;SDS011;10536;51.582;5.016;2022-10-31T08:44:34;34.92;;;20.90;;
20751;SDS011;10536;51.582;5.016;2022-10-31T08:49:46;37.45;;;19.95;;
20751;SDS011;10536;51.582;5.016;2022-10-31T08:54:59;37.63;;;20.88;;
20751;SDS011;10536;51.582;5.016;2022-10-31T09:00:11;36.38;;;22.02;;
20751;SDS011;10536;51.582;5.016;2022-10-31T09:05:24;35.70;;;22.17;;
20751;SDS011;10536;51.582;5.016;2022-10-31T09:10:36;45.28;;;22.65;;
20751;SDS011;10536;51.582;5.016;2022-10-31T09:15:45;44.25;;;24.27;;
20751;SDS011;10536;51.582;5.016;2022-10-31T09:21:00;45.88;;;24.73;;
20751;SDS011;10536;51.582;5.016;2022-10-31T09:26:15;46.13;;;27.10;;
20751;SDS011;10536;51.582;5.016;2022-10-31T09:31:26;49.88;;;27.17;;
20751;SDS011;10536;51.582;5.016;2022-10-31T09:36:47;50.85;;;27.70;;
20751;SDS011;10536;51.582;5.016;2022-10-31T09:47:42;52.20;;;29.30;;
20751;SDS011;10536;51.582;5.016;2022-10-31T09:58:04;47.80;;;27.60;;
20751;SDS011;10536;51.582;5.016;2022-10-31T10:03:41;53.60;;;29.05;;
20751;SDS011;10536;51.582;5.016;2022-10-31T10:08:55;61.88;;;31.00;;
20751;SDS011;10536;51.582;5.016;2022-10-31T10:25:00;69.78;;;32.10;;
20751;SDS011;10536;51.582;5.016;2022-10-31T10:36:03;68.43;;;35.63;;
20751;SDS011;10536;51.582;5.016;2022-10-31T10:41:22;70.25;;;34.95;;
20751;SDS011;10536;51.582;5.016;2022-10-31T10:46:48;71.50;;;36.03;;
20751;SDS011;10536;51.582;5.016;2022-10-31T10:52:28;79.60;;;39.15;;
20751;SDS011;10536;51.582;5.016;2022-10-31T10:57:58;77.43;;;38.15;;
20751;SDS011;10536;51.582;5.016;2022-10-31T11:03:16;79.85;;;39.45;;
20751;SDS011;10536;51.582;5.016;2022-10-31T11:08:31;86.60;;;39.00;;
20751;SDS011;10536;51.582;5.016;2022-10-31T11:13:44;81.53;;;39.40;;
20751;SDS011;10536;51.582;5.016;2022-10-31T11:24:22;85.28;;;41.05;;
20751;SDS011;10536;51.582;5.016;2022-10-31T11:29:32;84.65;;;40.47;;
20751;SDS011;10536;51.582;5.016;2022-10-31T11:34:45;83.82;;;39.85;;
20751;SDS011;10536;51.582;5.016;2022-10-31T11:40:02;93.43;;;42.75;;
20751;SDS011;10536;51.582;5.016;2022-10-31T11:45:16;90.43;;;42.13;;
20751;SDS011;10536;51.582;5.016;2022-10-31T11:50:48;87.30;;;41.58;;
20751;SDS011;10536;51.582;5.016;2022-10-31T11:56:15;84.30;;;41.10;;
20751;SDS011;10536;51.582;5.016;2022-10-31T12:01:39;86.32;;;41.35;;
20751;SDS011;10536;51.582;5.016;2022-10-31T12:06:59;82.40;;;41.33;;
20751;SDS011;10536;51.582;5.016;2022-10-31T12:17:54;79.55;;;39.78;;
20751;SDS011;10536;51.582;5.016;2022-10-31T12:23:25;83.57;;;39.97;;
20751;SDS011;10536;51.582;5.016;2022-10-31T12:28:59;86.80;;;39.20;;
20751;SDS011;10536;51.582;5.016;2022-10-31T13:01:15;75.05;;;38.53;;
20751;SDS011;10536;51.582;5.016;2022-10-31T13:06:33;72.38;;;38.08;;
20751;SDS011;10536;51.582;5.016;2022-10-31T13:11:45;67.80;;;35.65;;
20751;SDS011;10536;51.582;5.016;2022-10-31T13:16:55;66.75;;;34.58;;
20751;SDS011;10536;51.582;5.016;2022-10-31T13:27:46;65.38;;;33.03;;
20751;SDS011;10536;51.582;5.016;2022-10-31T13:33:08;62.05;;;32.50;;
20751;SDS011;10536;51.582;5.016;2022-10-31T13:48:55;58.75;;;30.15;;
20751;SDS011;10536;51.582;5.016;2022-10-31T13:59:59;63.60;;;30.98;;
20751;SDS011;10536;51.582;5.016;2022-10-31T14:10:38;55.22;;;29.50;;
20751;SDS011;10536;51.582;5.016;2022-10-31T14:15:58;61.90;;;30.75;;
20751;SDS011;10536;51.582;5.016;2022-10-31T14:26:32;52.13;;;27.98;;
20751;SDS011;10536;51.582;5.016;2022-10-31T14:53:14;54.15;;;23.95;;
20751;SDS011;10536;51.582;5.016;2022-10-31T14:58:34;50.97;;;22.77;;
20751;SDS011;10536;51.582;5.016;2022-10-31T15:03:44;45.97;;;22.55;;
20751;SDS011;10536;51.582;5.016;2022-10-31T15:08:53;38.72;;;21.60;;
20751;SDS011;10536;51.582;5.016;2022-10-31T15:14:00;41.92;;;21.38;;
20751;SDS011;10536;51.582;5.016;2022-10-31T15:19:26;38.70;;;20.20;;
20751;SDS011;10536;51.582;5.016;2022-10-31T15:24:41;37.47;;;18.02;;
20751;SDS011;10536;51.582;5.016;2022-10-31T15:29:53;32.88;;;16.23;;
20751;SDS011;10536;51.582;5.016;2022-10-31T15:35:08;38.67;;;17.63;;
20751;SDS011;10536;51.582;5.016;2022-10-31T15:40:14;29.92;;;15.82;;
20751;SDS011;10536;51.582;5.016;2022-10-31T15:45:24;33.67;;;16.55;;
20751;SDS011;10536;51.582;5.016;2022-10-31T15:56:00;36.75;;;16.83;;
20751;SDS011;10536;51.582;5.016;2022-10-31T16:06:39;28.52;;;15.55;;
20751;SDS011;10536;51.582;5.016;2022-10-31T16:11:48;31.60;;;16.63;;
20751;SDS011;10536;51.582;5.016;2022-10-31T16:17:00;31.60;;;16.63;;
20751;SDS011;10536;51.582;5.016;2022-10-31T16:22:12;34.35;;;17.02;;
20751;SDS011;10536;51.582;5.016;2022-10-31T16:27:29;36.85;;;17.20;;
20751;SDS011;10536;51.582;5.016;2022-10-31T16:39:08;33.50;;;17.08;;
20751;SDS011;10536;51.582;5.016;2022-10-31T16:44:18;35.38;;;17.15;;
20751;SDS011;10536;51.582;5.016;2022-10-31T16:49:35;34.47;;;16.92;;
20751;SDS011;10536;51.582;5.016;2022-10-31T16:54:47;34.53;;;17.33;;
20751;SDS011;10536;51.582;5.016;2022-10-31T17:00:00;33.85;;;16.48;;
20751;SDS011;10536;51.582;5.016;2022-10-31T17:05:13;29.63;;;15.85;;
20751;SDS011;10536;51.582;5.016;2022-10-31T17:10:25;36.25;;;16.27;;
20751;SDS011;10536;51.582;5.016;2022-10-31T17:15:37;41.83;;;15.75;;
20751;SDS011;10536;51.582;5.016;2022-10-31T17:20:54;23.70;;;13.85;;
20751;SDS011;10536;51.582;5.016;2022-10-31T17:26:11;29.17;;;14.20;;
20751;SDS011;10536;51.582;5.016;2022-10-31T17:31:30;24.92;;;13.60;;
20751;SDS011;10536;51.582;5.016;2022-10-31T17:36:40;25.85;;;13.23;;
20751;SDS011;10536;51.582;5.016;2022-10-31T17:41:53;25.52;;;11.57;;
20751;SDS011;10536;51.582;5.016;2022-10-31T17:47:08;27.75;;;11.85;;
20751;SDS011;10536;51.582;5.016;2022-10-31T17:52:21;32.63;;;12.25;;
20751;SDS011;10536;51.582;5.016;2022-10-31T17:57:35;27.98;;;12.75;;
20751;SDS011;10536;51.582;5.016;2022-10-31T18:02:42;26.15;;;12.75;;
20751;SDS011;10536;51.582;5.016;2022-10-31T18:07:54;35.60;;;13.32;;
20751;SDS011;10536;51.582;5.016;2022-10-31T18:13:09;19.00;;;11.82;;
20751;SDS011;10536;51.582;5.016;2022-10-31T18:18:22;21.15;;;11.70;;
20751;SDS011;10536;51.582;5.016;2022-10-31T18:23:36;19.08;;;10.35;;
20751;SDS011;10536;51.582;5.016;2022-10-31T18:28:51;21.45;;;10.00;;
20751;SDS011;10536;51.582;5.016;2022-10-31T18:34:00;24.85;;;11.00;;
20751;SDS011;10536;51.582;5.016;2022-10-31T18:39:13;20.77;;;10.68;;
20751;SDS011;10536;51.582;5.016;2022-10-31T18:44:23;31.65;;;10.68;;
20751;SDS011;10536;51.582;5.016;2022-10-31T18:49:38;21.27;;;10.52;;
20751;SDS011;10536;51.582;5.016;2022-10-31T18:54:52;25.73;;;10.65;;
20751;SDS011;10536;51.582;5.016;2022-10-31T19:00:08;23.65;;;10.27;;
20751;SDS011;10536;51.582;5.016;2022-10-31T19:05:22;20.13;;;9.50;;
20751;SDS011;10536;51.582;5.016;2022-10-31T19:10:35;17.77;;;9.55;;
20751;SDS011;10536;51.582;5.016;2022-10-31T19:15:41;25.67;;;10.05;;
20751;SDS011;10536;51.582;5.016;2022-10-31T19:20:52;25.35;;;10.80;;
20751;SDS011;10536;51.582;5.016;2022-10-31T19:26:00;24.85;;;9.98;;
20751;SDS011;10536;51.582;5.016;2022-10-31T19:31:07;22.05;;;10.65;;
20751;SDS011;10536;51.582;5.016;2022-10-31T19:36:17;16.65;;;10.27;;
20751;SDS011;10536;51.582;5.016;2022-10-31T19:41:27;26.00;;;9.90;;
20751;SDS011;10536;51.582;5.016;2022-10-31T19:46:37;19.42;;;9.77;;
20751;SDS011;10536;51.582;5.016;2022-10-31T19:51:50;18.50;;;9.55;;
20751;SDS011;10536;51.582;5.016;2022-10-31T19:57:04;21.10;;;9.82;;
20751;SDS011;10536;51.582;5.016;2022-10-31T20:02:28;24.15;;;10.00;;
20751;SDS011;10536;51.582;5.016;2022-10-31T20:15:35;27.02;;;9.25;;
20751;SDS011;10536;51.582;5.016;2022-10-31T20:21:10;16.13;;;9.50;;
20751;SDS011;10536;51.582;5.016;2022-10-31T20:26:18;23.90;;;9.40;;
20751;SDS011;10536;51.582;5.016;2022-10-31T20:31:31;23.02;;;8.98;;
20751;SDS011;10536;51.582;5.016;2022-10-31T20:36:46;21.45;;;9.50;;
20751;SDS011;10536;51.582;5.016;2022-10-31T20:41:59;13.88;;;8.77;;
20751;SDS011;10536;51.582;5.016;2022-10-31T20:47:09;29.23;;;8.88;;
20751;SDS011;10536;51.582;5.016;2022-10-31T20:52:21;22.95;;;9.00;;
20751;SDS011;10536;51.582;5.016;2022-10-31T20:57:35;17.25;;;9.57;;
20751;SDS011;10536;51.582;5.016;2022-10-31T21:02:52;17.00;;;8.77;;
20751;SDS011;10536;51.582;5.016;2022-10-31T21:08:05;12.02;;;8.55;;
20751;SDS011;10536;51.582;5.016;2022-10-31T21:13:19;20.38;;;8.30;;
20751;SDS011;10536;51.582;5.016;2022-10-31T21:18:27;18.00;;;8.93;;
20751;SDS011;10536;51.582;5.016;2022-10-31T21:23:34;18.67;;;8.50;;
20751;SDS011;10536;51.582;5.016;2022-10-31T21:28:48;19.02;;;8.23;;
20751;SDS011;10536;51.582;5.016;2022-10-31T21:34:01;13.75;;;8.15;;
20751;SDS011;10536;51.582;5.016;2022-10-31T21:39:40;18.88;;;7.82;;
20751;SDS011;10536;51.582;5.016;2022-10-31T21:44:47;22.77;;;8.55;;
20751;SDS011;10536;51.582;5.016;2022-10-31T21:49:58;17.55;;;7.70;;
20751;SDS011;10536;51.582;5.016;2022-10-31T21:55:11;17.55;;;7.72;;
20751;SDS011;10536;51.582;5.016;2022-10-31T22:00:22;10.48;;;6.80;;
20751;SDS011;10536;51.582;5.016;2022-10-31T22:05:33;14.93;;;7.38;;
20751;SDS011;10536;51.582;5.016;2022-10-31T22:10:42;18.08;;;7.55;;
20751;SDS011;10536;51.582;5.016;2022-10-31T22:15:52;13.25;;;7.03;;
20751;SDS011;10536;51.582;5.016;2022-10-31T22:21:07;14.90;;;7.32;;
20751;SDS011;10536;51.582;5.016;2022-10-31T22:26:20;15.73;;;7.15;;
20751;SDS011;10536;51.582;5.016;2022-10-31T22:31:29;15.90;;;6.78;;
20751;SDS011;10536;51.582;5.016;2022-10-31T22:36:39;12.60;;;7.57;;
20751;SDS011;10536;51.582;5.016;2022-10-31T22:41:51;16.45;;;7.47;;
20751;SDS011;10536;51.582;5.016;2022-10-31T22:47:07;15.15;;;7.20;;
20751;SDS011;10536;51.582;5.016;2022-10-31T22:52:20;17.95;;;7.15;;
20751;SDS011;10536;51.582;5.016;2022-10-31T22:57:34;23.90;;;8.23;;
20751;SDS011;10536;51.582;5.016;2022-10-31T23:02:44;12.73;;;7.93;;
20751;SDS011;10536;51.582;5.016;2022-10-31T23:07:57;23.70;;;7.78;;
20751;SDS011;10536;51.582;5.016;2022-10-31T23:13:09;19.08;;;8.70;;
20751;SDS011;10536;51.582;5.016;2022-10-31T23:18:34;15.98;;;8.23;;
20751;SDS011;10536;51.582;5.016;2022-10-31T23:23:41;21.17;;;9.20;;
20751;SDS011;10536;51.582;5.016;2022-10-31T23:28:53;16.60;;;8.05;;
20751;SDS011;10536;51.582;5.016;2022-10-31T23:34:04;22.13;;;8.13;;
20751;SDS011;10536;51.582;5.016;2022-10-31T23:39:21;16.27;;;7.68;;
20751;SDS011;10536;51.582;5.016;2022-10-31T23:44:33;14.55;;;7.72;;
20751;SDS011;10536;51.582;5.016;2022-10-31T23:49:42;18.75;;;7.80;;
20751;SDS011;10536;51.582;5.016;2022-10-31T23:54:55;17.83;;;7.13;;
